createdAt,value
2018-05-21T00:00:33.405Z,4.40
2018-05-21T00:03:00.073Z,4.47
2018-05-21T00:05:26.664Z,5.47
2018-05-21T00:07:53.274Z,5.03
2018-05-21T00:10:19.881Z,4.87
2018-05-21T00:12:46.526Z,5.05
2018-05-21T00:15:13.150Z,4.60
2018-05-21T00:17:39.770Z,4.78
2018-05-21T00:20:06.402Z,4.53
2018-05-21T00:22:33.088Z,5.30
2018-05-21T00:24:59.702Z,5.37
2018-05-21T00:27:26.333Z,5.53
2018-05-21T00:29:52.993Z,5.03
2018-05-21T00:32:20.024Z,5.53
2018-05-21T00:34:46.658Z,6.00
2018-05-21T00:37:13.269Z,6.40
2018-05-21T00:39:39.887Z,5.70
2018-05-21T00:42:06.516Z,5.85
2018-05-21T00:44:33.135Z,5.80
2018-05-21T00:46:59.786Z,5.82
2018-05-21T00:49:26.554Z,5.72
2018-05-21T00:51:53.184Z,5.05
2018-05-21T00:54:19.798Z,5.65
2018-05-21T00:56:46.434Z,5.53
2018-05-21T00:59:13.057Z,6.57
2018-05-21T01:01:39.675Z,6.15
2018-05-21T01:04:06.368Z,5.82
2018-05-21T01:06:32.972Z,6.93
2018-05-21T01:08:59.629Z,6.28
2018-05-21T01:11:26.377Z,6.65
2018-05-21T01:13:52.992Z,6.45
2018-05-21T01:16:19.617Z,6.97
2018-05-21T01:18:46.324Z,7.78
2018-05-21T01:21:12.942Z,6.20
2018-05-21T01:23:39.561Z,6.05
2018-05-21T01:26:06.203Z,6.43
2018-05-21T01:28:32.820Z,6.22
2018-05-21T01:30:59.441Z,5.85
2018-05-21T01:33:26.072Z,6.60
2018-05-21T01:35:52.766Z,6.97
2018-05-21T01:38:19.381Z,6.87
2018-05-21T01:40:46.041Z,7.18
2018-05-21T01:43:12.656Z,6.82
2018-05-21T01:45:39.326Z,7.28
2018-05-21T01:48:05.959Z,6.90
2018-05-21T01:50:32.581Z,6.72
2018-05-21T01:52:59.244Z,6.20
2018-05-21T01:55:25.982Z,8.32
2018-05-21T01:57:52.625Z,8.25
2018-05-21T02:00:19.236Z,7.57
2018-05-21T02:02:45.876Z,7.20
2018-05-21T02:05:12.512Z,7.32
2018-05-21T02:07:39.178Z,7.53
2018-05-21T02:10:05.819Z,7.85
2018-05-21T02:12:32.554Z,7.80
2018-05-21T02:14:59.192Z,7.75
2018-05-21T02:17:25.946Z,7.28
2018-05-21T02:19:52.574Z,7.10
2018-05-21T02:22:19.180Z,7.97
2018-05-21T02:24:45.817Z,7.57
2018-05-21T02:27:12.495Z,9.15
2018-05-21T02:29:39.104Z,7.60
2018-05-21T02:32:05.750Z,8.73
2018-05-21T02:34:32.410Z,7.45
2018-05-21T02:36:59.045Z,9.05
2018-05-21T02:39:25.684Z,6.97
2018-05-21T02:41:52.325Z,7.90
2018-05-21T02:44:19.063Z,8.45
2018-05-21T02:46:45.806Z,8.20
2018-05-21T02:49:12.421Z,7.80
2018-05-21T02:51:39.042Z,7.62
2018-05-21T02:54:05.734Z,7.85
2018-05-21T02:56:32.347Z,8.45
2018-05-21T02:58:58.964Z,8.27
2018-05-21T03:01:25.644Z,7.90
2018-05-21T03:03:52.281Z,8.38
2018-05-21T03:06:18.899Z,8.10
2018-05-21T03:08:45.529Z,7.90
2018-05-21T03:11:12.201Z,8.80
2018-05-21T03:13:38.838Z,7.60
2018-05-21T03:16:05.469Z,8.30
2018-05-21T03:18:32.117Z,7.75
2018-05-21T03:20:58.729Z,7.20
2018-05-21T03:23:25.393Z,7.50
2018-05-21T03:25:52.015Z,7.20
2018-05-21T03:28:18.668Z,8.05
2018-05-21T03:30:45.296Z,8.10
2018-05-21T03:33:11.913Z,8.27
2018-05-21T03:35:38.530Z,7.32
2018-05-21T03:38:05.165Z,8.40
2018-05-21T03:40:31.785Z,7.40
2018-05-21T03:42:58.500Z,7.68
2018-05-21T03:45:25.134Z,7.25
2018-05-21T03:47:51.750Z,7.35
2018-05-21T03:50:18.416Z,8.15
2018-05-21T03:52:45.171Z,7.37
2018-05-21T03:55:11.781Z,7.80
2018-05-21T03:57:38.437Z,6.65
2018-05-21T04:00:11.130Z,7.10
2018-05-21T04:02:43.813Z,7.20
2018-05-21T04:05:10.541Z,7.07
2018-05-21T04:07:37.185Z,7.45
2018-05-21T04:10:03.806Z,7.05
2018-05-21T04:12:30.466Z,7.05
2018-05-21T04:14:57.110Z,6.95
2018-05-21T04:17:23.741Z,6.37
2018-05-21T04:19:50.485Z,6.97
2018-05-21T04:22:17.157Z,6.62
2018-05-21T04:24:43.872Z,7.40
2018-05-21T04:27:10.610Z,7.22
2018-05-21T04:29:37.225Z,6.75
2018-05-21T04:32:03.846Z,6.70
2018-05-21T04:34:30.522Z,7.68
2018-05-21T04:36:57.150Z,6.87
2018-05-21T04:39:23.766Z,6.70
2018-05-21T04:41:50.389Z,6.70
2018-05-21T04:44:17.010Z,6.75
2018-05-21T04:46:43.718Z,5.78
2018-05-21T04:49:10.347Z,6.37
2018-05-21T04:51:36.953Z,6.28
2018-05-21T04:54:03.577Z,7.82
2018-05-21T04:56:30.201Z,5.75
2018-05-21T04:58:56.812Z,5.53
2018-05-21T05:01:23.424Z,7.18
2018-05-21T05:03:50.084Z,5.75
2018-05-21T05:06:16.701Z,5.30
2018-05-21T05:08:43.371Z,5.78
2018-05-21T05:11:09.996Z,6.43
2018-05-21T05:13:36.642Z,5.72
2018-05-21T05:16:03.317Z,5.85
2018-05-21T05:18:30.030Z,6.10
2018-05-21T05:20:56.700Z,5.30
2018-05-21T05:23:23.281Z,5.70
2018-05-21T05:25:49.918Z,5.62
2018-05-21T05:28:16.533Z,5.15
2018-05-21T05:30:43.147Z,6.50
2018-05-21T05:33:09.874Z,5.12
2018-05-21T05:35:36.605Z,5.30
2018-05-21T05:38:03.223Z,5.10
2018-05-21T05:40:29.876Z,5.95
2018-05-21T05:42:56.497Z,5.65
2018-05-21T05:45:23.162Z,5.40
2018-05-21T05:47:49.797Z,5.78
2018-05-21T05:50:16.423Z,5.22
2018-05-21T05:52:43.073Z,4.45
2018-05-21T05:55:09.702Z,5.57
2018-05-21T05:57:36.322Z,5.12
2018-05-21T06:00:02.942Z,5.68
2018-05-21T06:02:29.573Z,5.03
2018-05-21T06:04:56.180Z,4.72
2018-05-21T06:07:22.798Z,5.05
2018-05-21T06:09:49.435Z,4.78
2018-05-21T06:12:16.053Z,5.12
2018-05-21T06:14:42.728Z,5.32
2018-05-21T06:17:09.358Z,5.05
2018-05-21T06:19:36.011Z,4.70
2018-05-21T06:22:02.634Z,5.53
2018-05-21T06:24:29.261Z,4.72
2018-05-21T06:26:55.872Z,4.62
2018-05-21T06:29:22.484Z,6.55
2018-05-21T06:31:49.122Z,4.45
2018-05-21T06:34:15.771Z,5.05
2018-05-21T06:36:42.354Z,5.35
2018-05-21T06:39:09.015Z,5.20
2018-05-21T06:41:35.630Z,4.40
2018-05-21T06:44:02.240Z,5.05
2018-05-21T06:46:28.878Z,4.80
2018-05-21T06:48:55.721Z,5.43
2018-05-21T06:51:22.333Z,5.12
2018-05-21T06:53:48.965Z,6.57
2018-05-21T06:56:15.587Z,5.15
2018-05-21T06:58:42.205Z,4.40
2018-05-21T07:01:08.847Z,5.43
2018-05-21T07:03:35.500Z,4.90
2018-05-21T07:06:02.116Z,4.15
2018-05-21T07:08:28.748Z,5.12
2018-05-21T07:10:55.423Z,5.07
2018-05-21T07:13:22.027Z,4.87
2018-05-21T07:15:48.657Z,4.68
2018-05-21T07:18:15.353Z,5.30
2018-05-21T07:20:42.081Z,4.53
2018-05-21T07:23:08.712Z,5.85
2018-05-21T07:25:35.326Z,4.43
2018-05-21T07:28:02.036Z,5.22
2018-05-21T07:30:28.738Z,5.12
2018-05-21T07:32:55.385Z,7.15
2018-05-21T07:35:22.010Z,6.43
2018-05-21T07:37:48.645Z,4.25
2018-05-21T07:40:15.257Z,4.70
2018-05-21T07:42:41.936Z,4.87
2018-05-21T07:45:08.576Z,5.00
2018-05-21T07:47:35.218Z,4.60
2018-05-21T07:50:01.962Z,5.18
2018-05-21T07:52:28.568Z,4.95
2018-05-21T07:54:55.239Z,4.55
2018-05-21T07:57:21.870Z,5.70
2018-05-21T07:59:48.508Z,4.95
2018-05-21T08:02:15.131Z,4.78
2018-05-21T08:04:41.753Z,5.07
2018-05-21T08:07:08.429Z,4.78
2018-05-21T08:09:35.049Z,4.62
2018-05-21T08:12:01.714Z,4.40
2018-05-21T08:14:28.393Z,4.05
2018-05-21T08:16:55.131Z,4.85
2018-05-21T08:19:21.829Z,5.05
2018-05-21T08:21:48.507Z,5.03
2018-05-21T08:24:15.117Z,5.65
2018-05-21T08:26:41.754Z,5.55
2018-05-21T08:29:08.383Z,4.60
2018-05-21T08:31:35.002Z,4.50
2018-05-21T08:34:01.633Z,4.28
2018-05-21T08:36:28.300Z,5.15
2018-05-21T08:38:54.937Z,4.80
2018-05-21T08:41:21.560Z,4.62
2018-05-21T08:43:48.181Z,5.20
2018-05-21T08:46:14.800Z,5.95
2018-05-21T08:48:41.435Z,4.15
2018-05-21T08:51:08.132Z,3.50
2018-05-21T08:53:34.749Z,4.78
2018-05-21T08:56:01.425Z,4.50
2018-05-21T08:58:28.042Z,5.05
2018-05-21T09:00:54.728Z,4.53
2018-05-21T09:03:21.363Z,4.30
2018-05-21T09:05:47.978Z,4.10
2018-05-21T09:08:14.598Z,4.37
2018-05-21T09:10:41.238Z,4.50
2018-05-21T09:13:07.895Z,5.45
2018-05-21T09:15:34.626Z,4.28
2018-05-21T09:18:01.254Z,4.65
2018-05-21T09:20:27.870Z,5.30
2018-05-21T09:22:54.549Z,4.32
2018-05-21T09:25:21.152Z,4.72
2018-05-21T09:27:47.835Z,4.37
2018-05-21T09:30:14.455Z,5.00
2018-05-21T09:32:41.113Z,4.43
2018-05-21T09:35:07.726Z,4.03
2018-05-21T09:37:34.350Z,4.70
2018-05-21T09:40:01.027Z,4.53
2018-05-21T09:42:27.761Z,5.03
2018-05-21T09:44:54.381Z,4.37
2018-05-21T09:47:21.015Z,6.30
2018-05-21T09:49:47.631Z,5.12
2018-05-21T09:52:14.250Z,4.07
2018-05-21T09:54:40.874Z,4.05
2018-05-21T09:57:08.422Z,4.20
2018-05-21T09:59:35.152Z,4.35
2018-05-21T10:02:01.774Z,4.05
2018-05-21T10:04:28.389Z,3.75
2018-05-21T10:06:55.009Z,5.97
2018-05-21T10:09:21.630Z,4.30
2018-05-21T10:11:48.266Z,3.75
2018-05-21T10:14:14.890Z,4.45
2018-05-21T10:16:41.504Z,4.00
2018-05-21T10:19:08.142Z,4.30
2018-05-21T10:21:34.757Z,3.60
2018-05-21T10:24:01.455Z,3.62
2018-05-21T10:26:28.074Z,4.07
2018-05-21T10:28:54.684Z,4.70
2018-05-21T10:31:21.306Z,3.97
2018-05-21T10:33:48.006Z,4.28
2018-05-21T10:36:14.755Z,4.68
2018-05-21T10:38:41.371Z,4.53
2018-05-21T10:41:07.985Z,4.95
2018-05-21T10:43:34.674Z,3.70
2018-05-21T10:46:01.302Z,4.25
2018-05-21T10:48:27.939Z,4.35
2018-05-21T10:50:54.558Z,4.62
2018-05-21T10:53:21.221Z,4.28
2018-05-21T10:55:47.854Z,3.78
2018-05-21T10:58:14.498Z,3.97
2018-05-21T11:00:41.125Z,4.53
2018-05-21T11:03:07.766Z,3.75
2018-05-21T11:05:34.398Z,3.62
2018-05-21T11:08:01.017Z,4.30
2018-05-21T11:10:27.637Z,3.50
2018-05-21T11:12:54.265Z,4.28
2018-05-21T11:15:20.979Z,4.07
2018-05-21T11:17:47.612Z,3.65
2018-05-21T11:20:14.224Z,3.55
2018-05-21T11:22:40.845Z,3.92
2018-05-21T11:25:07.474Z,5.47
2018-05-21T11:27:34.097Z,4.12
2018-05-21T11:30:00.840Z,4.30
2018-05-21T11:32:27.456Z,4.95
2018-05-21T11:34:54.091Z,4.90
2018-05-21T11:37:20.821Z,3.87
2018-05-21T11:39:47.465Z,3.85
2018-05-21T11:42:14.099Z,3.80
2018-05-21T11:44:40.712Z,3.43
2018-05-21T11:47:07.330Z,3.90
2018-05-21T11:49:34.053Z,4.03
2018-05-21T11:52:00.667Z,4.27
2018-05-21T11:54:27.301Z,3.10
2018-05-21T11:56:53.923Z,4.27
2018-05-21T11:59:20.534Z,3.07
2018-05-21T12:01:47.166Z,3.00
2018-05-21T12:04:13.853Z,3.70
2018-05-21T12:06:40.739Z,3.27
2018-05-21T12:09:07.473Z,3.30
2018-05-21T12:11:34.085Z,3.27
2018-05-21T12:14:00.827Z,3.73
2018-05-21T12:16:27.566Z,2.67
2018-05-21T12:18:54.206Z,3.13
2018-05-21T12:21:20.821Z,3.57
2018-05-21T12:23:47.446Z,3.87
2018-05-21T12:26:14.113Z,3.67
2018-05-21T12:28:40.781Z,3.20
2018-05-21T12:31:07.365Z,3.23
2018-05-21T12:33:34.039Z,3.37
2018-05-21T12:36:00.669Z,3.40
2018-05-21T12:38:27.297Z,3.53
2018-05-21T12:40:53.957Z,3.27
2018-05-21T12:43:20.585Z,3.50
2018-05-21T12:45:47.203Z,3.70
2018-05-21T12:48:13.873Z,2.57
2018-05-21T12:50:40.614Z,3.37
2018-05-21T12:53:07.253Z,3.43
2018-05-21T12:55:33.884Z,2.80
2018-05-21T12:58:00.526Z,3.73
2018-05-21T13:00:27.142Z,3.00
2018-05-21T13:02:53.805Z,3.00
2018-05-21T13:05:20.532Z,2.93
2018-05-21T13:07:47.082Z,3.00
2018-05-21T13:10:13.693Z,2.70
2018-05-21T13:12:40.370Z,3.37
2018-05-21T13:15:07.010Z,2.70
2018-05-21T13:17:33.630Z,3.10
2018-05-21T13:20:00.252Z,2.47
2018-05-21T13:22:26.872Z,3.07
2018-05-21T13:24:53.569Z,2.83
2018-05-21T13:27:20.198Z,2.30
2018-05-21T13:29:46.823Z,3.40
2018-05-21T13:32:13.478Z,3.27
2018-05-21T13:34:40.097Z,3.33
2018-05-21T13:37:06.748Z,3.67
2018-05-21T13:39:33.400Z,3.60
2018-05-21T13:42:00.035Z,3.33
2018-05-21T13:44:26.658Z,3.17
2018-05-21T13:46:53.314Z,3.57
2018-05-21T13:49:19.943Z,3.53
2018-05-21T13:51:46.569Z,2.80
2018-05-21T13:54:13.229Z,3.57
2018-05-21T13:56:39.964Z,3.40
2018-05-21T13:59:06.577Z,2.80
2018-05-21T14:01:33.187Z,2.77
2018-05-21T14:03:59.888Z,2.90
2018-05-21T14:06:26.530Z,2.60
2018-05-21T14:08:53.145Z,3.30
2018-05-21T14:11:19.800Z,2.50
2018-05-21T14:13:46.418Z,3.30
2018-05-21T14:16:13.093Z,3.17
2018-05-21T14:18:39.821Z,2.80
2018-05-21T14:21:06.439Z,4.00
2018-05-21T14:23:33.054Z,3.00
2018-05-21T14:25:59.737Z,3.33
2018-05-21T14:28:26.358Z,2.43
2018-05-21T14:30:52.969Z,2.87
2018-05-21T14:33:19.633Z,2.90
2018-05-21T14:35:46.230Z,2.50
2018-05-21T14:38:17.652Z,2.60
2018-05-21T14:40:44.335Z,2.77
2018-05-21T14:43:10.889Z,2.70
2018-05-21T14:45:37.517Z,3.10
2018-05-21T14:48:04.206Z,2.50
2018-05-21T14:50:30.839Z,2.37
2018-05-21T14:52:57.493Z,2.50
2018-05-21T14:55:24.119Z,2.83
2018-05-21T14:57:50.755Z,2.67
2018-05-21T15:00:17.374Z,2.50
2018-05-21T15:02:44.029Z,2.13
2018-05-21T15:05:10.652Z,2.50
2018-05-21T15:07:37.312Z,2.17
2018-05-21T15:10:03.961Z,1.93
2018-05-21T15:12:30.591Z,2.50
2018-05-21T15:14:57.222Z,2.63
2018-05-21T15:17:23.907Z,2.63
2018-05-21T15:19:50.609Z,2.13
2018-05-21T15:22:17.326Z,2.30
2018-05-21T15:24:43.893Z,2.17
2018-05-21T15:27:10.624Z,2.80
2018-05-21T15:29:37.248Z,2.17
2018-05-21T15:32:03.914Z,2.80
2018-05-21T15:34:30.655Z,2.60
2018-05-21T15:36:57.273Z,2.80
2018-05-21T15:39:23.907Z,2.53
2018-05-21T15:41:50.522Z,2.40
2018-05-21T15:44:17.219Z,2.40
2018-05-21T15:46:43.842Z,2.40
2018-05-21T15:49:10.493Z,2.53
2018-05-21T15:51:37.230Z,2.30
2018-05-21T15:54:03.879Z,2.53
2018-05-21T15:56:30.490Z,2.87
2018-05-21T15:58:57.125Z,2.57
2018-05-21T16:01:23.746Z,2.23
2018-05-21T16:03:50.374Z,2.43
2018-05-21T16:06:17.071Z,2.40
2018-05-21T16:08:43.755Z,2.67
2018-05-21T16:11:10.332Z,2.93
2018-05-21T16:13:36.972Z,3.40
2018-05-21T16:16:03.613Z,3.50
2018-05-21T16:18:30.234Z,2.93
2018-05-21T16:20:56.893Z,2.77
2018-05-21T16:23:23.646Z,2.40
2018-05-21T16:25:50.273Z,3.30
2018-05-21T16:28:16.914Z,3.03
2018-05-21T16:30:43.526Z,2.30
2018-05-21T16:33:10.188Z,2.97
2018-05-21T16:35:36.910Z,2.83
2018-05-21T16:38:03.429Z,2.80
2018-05-21T16:40:30.067Z,2.60
2018-05-21T16:42:56.744Z,3.30
2018-05-21T16:45:23.394Z,4.03
2018-05-21T16:47:50.188Z,3.40
2018-05-21T16:50:16.746Z,3.70
2018-05-21T16:52:43.405Z,3.00
2018-05-21T16:55:10.050Z,3.17
2018-05-21T16:57:36.675Z,3.70
2018-05-21T17:00:03.349Z,3.33
2018-05-21T17:02:30.066Z,3.23
2018-05-21T17:04:56.704Z,3.43
2018-05-21T17:07:23.454Z,3.40
2018-05-21T17:09:49.978Z,3.43
2018-05-21T17:12:16.621Z,3.83
2018-05-21T17:14:43.229Z,4.10
2018-05-21T17:17:09.906Z,3.73
2018-05-21T17:19:36.552Z,3.40
2018-05-21T17:22:03.165Z,3.97
2018-05-21T17:24:29.823Z,3.40
2018-05-21T17:26:56.469Z,4.60
2018-05-21T17:29:23.147Z,4.25
2018-05-21T17:31:49.755Z,3.85
2018-05-21T17:34:16.377Z,3.85
2018-05-21T17:36:43.018Z,4.12
2018-05-21T17:39:09.664Z,3.87
2018-05-21T17:41:36.406Z,3.42
2018-05-21T17:44:03.069Z,3.80
2018-05-21T17:46:29.680Z,3.50
2018-05-21T17:48:56.336Z,3.92
2018-05-21T17:51:22.961Z,4.12
2018-05-21T17:53:49.597Z,3.58
2018-05-21T17:56:16.216Z,4.25
2018-05-21T17:58:42.833Z,4.12
2018-05-21T18:01:09.468Z,3.90
2018-05-21T18:03:36.099Z,3.72
2018-05-21T18:06:02.743Z,3.12
2018-05-21T18:08:29.366Z,4.20
2018-05-21T18:10:55.983Z,3.45
2018-05-21T18:13:22.613Z,4.15
2018-05-21T18:15:49.221Z,3.53
2018-05-21T18:18:15.855Z,4.15
2018-05-21T18:20:42.468Z,3.62
2018-05-21T18:23:09.154Z,4.28
2018-05-21T18:25:35.789Z,4.10
2018-05-21T18:28:02.410Z,3.50
2018-05-21T18:30:29.057Z,3.90
2018-05-21T18:32:55.678Z,4.40
2018-05-21T18:35:22.387Z,3.70
2018-05-21T18:37:49.013Z,3.80
2018-05-21T18:40:15.724Z,4.25
2018-05-21T18:42:42.360Z,3.87
2018-05-21T18:45:08.986Z,4.32
2018-05-21T18:47:35.602Z,3.97
2018-05-21T18:50:02.322Z,4.37
2018-05-21T18:52:29.033Z,3.60
2018-05-21T18:54:55.668Z,4.30
2018-05-21T18:57:22.282Z,3.90
2018-05-21T18:59:48.950Z,4.68
2018-05-21T19:02:15.577Z,4.50
2018-05-21T19:04:42.221Z,4.07
2018-05-21T19:07:08.961Z,4.65
2018-05-21T19:09:35.573Z,4.97
2018-05-21T19:12:02.240Z,4.57
2018-05-21T19:14:28.869Z,4.57
2018-05-21T19:16:55.484Z,4.40
2018-05-21T19:19:22.119Z,4.30
2018-05-21T19:21:48.739Z,4.57
2018-05-21T19:24:15.358Z,4.95
2018-05-21T19:26:42.080Z,6.05
2018-05-21T19:29:08.693Z,4.90
2018-05-21T19:31:35.329Z,4.97
2018-05-21T19:34:02.011Z,5.15
2018-05-21T19:36:28.616Z,4.90
2018-05-21T19:38:55.315Z,4.82
2018-05-21T19:41:21.934Z,4.75
2018-05-21T19:43:48.570Z,4.90
2018-05-21T19:46:15.185Z,4.57
2018-05-21T19:48:41.797Z,5.15
2018-05-21T19:51:08.426Z,4.40
2018-05-21T19:53:35.046Z,5.00
2018-05-21T19:56:01.670Z,4.37
2018-05-21T19:58:28.299Z,4.55
2018-05-21T20:00:55.024Z,4.68
2018-05-21T20:03:21.658Z,4.62
2018-05-21T20:05:48.278Z,4.30
2018-05-21T20:08:14.901Z,5.60
2018-05-21T20:10:41.535Z,5.87
2018-05-21T20:13:08.151Z,6.03
2018-05-21T20:15:34.863Z,6.25
2018-05-21T20:18:01.482Z,5.72
2018-05-21T20:20:34.183Z,5.65
2018-05-21T20:23:00.788Z,5.75
2018-05-21T20:25:27.406Z,5.72
2018-05-21T20:27:54.034Z,4.70
2018-05-21T20:30:20.737Z,5.12
2018-05-21T20:32:47.378Z,4.85
2018-05-21T20:35:14.118Z,4.75
2018-05-21T20:37:40.752Z,6.12
2018-05-21T20:40:07.390Z,10.13
2018-05-21T20:42:34.031Z,6.25
2018-05-21T20:45:00.679Z,4.87
2018-05-21T20:47:27.308Z,5.10
2018-05-21T20:49:53.953Z,5.90
2018-05-21T20:52:20.586Z,4.80
2018-05-21T20:54:47.206Z,5.07
2018-05-21T20:57:13.864Z,5.70
2018-05-21T20:59:40.494Z,5.82
2018-05-21T21:02:07.111Z,4.28
2018-05-21T21:04:33.781Z,5.22
2018-05-21T21:07:00.398Z,5.10
2018-05-21T21:09:27.012Z,4.82
2018-05-21T21:11:53.706Z,5.50
2018-05-21T21:14:20.322Z,5.53
2018-05-21T21:16:46.949Z,5.20
2018-05-21T21:19:13.559Z,5.57
2018-05-21T21:21:40.178Z,5.72
2018-05-21T21:24:06.801Z,5.00
2018-05-21T21:26:33.425Z,5.60
2018-05-21T21:29:00.072Z,5.95
2018-05-21T21:31:26.716Z,5.15
2018-05-21T21:33:53.386Z,5.57
2018-05-21T21:36:20.004Z,4.97
2018-05-21T21:38:46.627Z,5.97
2018-05-21T21:41:13.257Z,5.55
2018-05-21T21:43:40.173Z,5.60
2018-05-21T21:46:06.794Z,4.90
2018-05-21T21:48:33.493Z,6.22
2018-05-21T21:51:00.129Z,6.37
2018-05-21T21:53:26.765Z,6.03
2018-05-21T21:55:53.385Z,5.75
2018-05-21T21:58:19.998Z,5.10
2018-05-21T22:00:46.681Z,5.50
2018-05-21T22:03:13.308Z,6.10
2018-05-21T22:05:39.934Z,6.62
2018-05-21T22:08:06.608Z,5.15
2018-05-21T22:10:33.223Z,5.62
2018-05-21T22:12:59.885Z,6.28
2018-05-21T22:15:26.517Z,11.23
2018-05-21T22:17:53.265Z,7.60
2018-05-21T22:20:19.882Z,5.53
2018-05-21T22:22:46.541Z,6.57
2018-05-21T22:25:13.176Z,5.47
2018-05-21T22:27:39.788Z,6.55
2018-05-21T22:30:06.430Z,5.68
2018-05-21T22:32:33.036Z,4.97
2018-05-21T22:34:59.645Z,5.35
2018-05-21T22:37:26.273Z,5.70
2018-05-21T22:39:52.890Z,4.95
2018-05-21T22:42:19.538Z,5.32
2018-05-21T22:44:46.155Z,5.80
2018-05-21T22:47:12.837Z,5.20
2018-05-21T22:49:39.574Z,5.65
2018-05-21T22:52:06.209Z,5.75
2018-05-21T22:54:35.726Z,5.95
2018-05-21T22:57:02.361Z,6.00
2018-05-21T22:59:28.991Z,5.15
2018-05-21T23:01:55.613Z,6.78
2018-05-21T23:04:22.287Z,6.50
2018-05-21T23:06:48.927Z,6.20
2018-05-21T23:09:15.541Z,6.62
2018-05-21T23:11:42.149Z,6.57
2018-05-21T23:14:08.777Z,6.10
2018-05-21T23:16:35.389Z,6.22
2018-05-21T23:19:02.023Z,5.18
2018-05-21T23:21:28.642Z,6.07
2018-05-21T23:23:55.290Z,6.60
2018-05-21T23:26:22.025Z,5.90
2018-05-21T23:28:48.646Z,6.78
2018-05-21T23:31:15.276Z,6.35
2018-05-21T23:33:41.895Z,5.97
2018-05-21T23:36:08.582Z,5.95
2018-05-21T23:38:35.221Z,5.75
2018-05-21T23:41:01.846Z,5.10
2018-05-21T23:43:28.511Z,5.65
2018-05-21T23:45:55.126Z,6.40
2018-05-21T23:48:21.739Z,6.07
2018-05-21T23:50:48.360Z,6.03
2018-05-21T23:53:14.969Z,5.80
2018-05-21T23:55:41.593Z,5.80
2018-05-21T23:58:08.209Z,6.20
